createdAt,value
2019-01-08T00:01:49.900Z,99238.85
2019-01-08T00:04:33.392Z,99238.95
2019-01-08T00:07:01.585Z,99233.33
2019-01-08T00:09:29.641Z,99230.14
2019-01-08T00:11:58.065Z,99217.81
2019-01-08T00:14:26.555Z,99218.88
2019-01-08T00:16:54.927Z,99211.61
2019-01-08T00:19:23.083Z,99207.72
2019-01-08T00:21:51.593Z,99211.58
2019-01-08T00:24:20.161Z,99200.72
2019-01-08T00:26:48.198Z,99193.72
2019-01-08T00:29:16.627Z,99194.40
2019-01-08T00:31:44.986Z,99187.40
2019-01-08T00:34:13.053Z,99170.31
2019-01-08T00:36:41.379Z,99170.66
2019-01-08T00:39:09.477Z,99175.51
2019-01-08T00:41:37.894Z,99165.81
2019-01-08T00:44:05.941Z,99155.33
2019-01-08T00:46:34.468Z,99145.19
2019-01-08T00:49:02.580Z,99133.20
2019-01-08T00:51:30.900Z,99123.97
2019-01-08T00:53:59.014Z,99117.73
2019-01-08T00:56:27.314Z,99118.44
2019-01-08T00:58:55.360Z,99101.49
2019-01-08T01:01:23.794Z,99098.56
2019-01-08T01:03:52.284Z,99096.77
2019-01-08T01:06:20.687Z,99083.33
2019-01-08T01:08:48.903Z,99085.67
2019-01-08T01:11:18.738Z,99079.70
2019-01-08T01:13:47.133Z,99082.48
2019-01-08T01:16:15.353Z,99079.44
2019-01-08T01:18:43.368Z,99081.75
2019-01-08T01:21:11.746Z,99073.34
2019-01-08T01:23:39.874Z,99064.87
2019-01-08T01:26:07.891Z,99072.88
2019-01-08T01:28:36.295Z,99067.50
2019-01-08T01:31:04.765Z,99058.28
2019-01-08T01:33:33.557Z,99058.55
2019-01-08T01:36:01.997Z,99052.98
2019-01-08T01:38:30.023Z,99049.08
2019-01-08T01:40:58.034Z,99041.52
2019-01-08T01:43:26.560Z,99043.80
2019-01-08T01:45:54.735Z,99030.94
2019-01-08T01:48:22.888Z,99031.35
2019-01-08T01:50:51.273Z,99031.56
2019-01-08T01:53:19.654Z,99014.91
2019-01-08T01:55:48.024Z,99003.44
2019-01-08T01:58:16.322Z,98991.64
2019-01-08T02:00:44.774Z,98993.39
2019-01-08T02:03:13.485Z,98982.08
2019-01-08T02:05:41.659Z,98978.00
2019-01-08T02:08:09.728Z,98965.94
2019-01-08T02:10:37.756Z,98960.77
2019-01-08T02:13:06.808Z,98959.82
2019-01-08T02:15:35.266Z,98937.25
2019-01-08T02:18:03.288Z,98935.02
2019-01-08T02:20:31.509Z,98928.96
2019-01-08T02:29:35.822Z,98916.48
2019-01-08T02:32:04.483Z,98911.98
2019-01-08T02:34:32.877Z,98902.88
2019-01-08T02:37:01.558Z,98883.28
2019-01-08T02:39:29.806Z,98882.23
2019-01-08T02:41:57.959Z,98882.00
2019-01-08T02:44:26.207Z,98878.77
2019-01-08T02:46:55.062Z,98868.78
2019-01-08T02:49:23.218Z,98885.47
2019-01-08T02:51:52.038Z,98877.97
2019-01-08T02:54:20.845Z,98867.02
2019-01-08T02:56:49.160Z,98857.98
2019-01-08T02:59:24.896Z,98836.64
2019-01-08T03:01:48.223Z,98834.55
2019-01-08T03:04:16.555Z,98820.95
2019-01-08T03:06:44.650Z,98819.59
2019-01-08T03:09:12.868Z,98813.14
2019-01-08T03:11:41.594Z,98814.02
2019-01-08T03:14:10.278Z,98806.16
2019-01-08T03:16:38.588Z,98795.23
2019-01-08T03:19:07.030Z,98788.78
2019-01-08T03:21:35.520Z,98781.59
2019-01-08T03:24:03.677Z,98776.52
2019-01-08T03:26:32.277Z,98773.90
2019-01-08T03:29:00.960Z,98759.53
2019-01-08T03:31:29.470Z,98755.23
2019-01-08T03:33:57.928Z,98751.28
2019-01-08T03:36:26.393Z,98741.78
2019-01-08T03:38:54.854Z,98741.34
2019-01-08T03:41:24.394Z,98730.91
2019-01-08T03:43:52.791Z,98728.69
2019-01-08T03:46:20.784Z,98724.38
2019-01-08T03:48:49.104Z,98725.64
2019-01-08T03:51:18.098Z,98723.02
2019-01-08T03:53:46.135Z,98719.56
2019-01-08T03:56:14.937Z,98706.08
2019-01-08T03:58:43.308Z,98713.48
2019-01-08T04:01:11.336Z,98706.92
2019-01-08T04:03:39.410Z,98686.89
2019-01-08T04:06:07.881Z,98688.20
2019-01-08T04:08:36.346Z,98682.98
2019-01-08T04:11:04.778Z,98690.38
2019-01-08T04:13:33.436Z,98670.73
2019-01-08T04:16:01.505Z,98664.66
2019-01-08T04:18:29.661Z,98666.44
2019-01-08T04:20:57.844Z,98667.28
2019-01-08T04:23:26.615Z,98663.36
2019-01-08T04:25:54.804Z,98661.61
2019-01-08T04:28:22.978Z,98653.78
2019-01-08T04:30:51.470Z,98652.06
2019-01-08T04:33:19.861Z,98645.49
2019-01-08T04:35:47.978Z,98649.00
2019-01-08T04:38:16.506Z,98650.30
2019-01-08T04:40:44.579Z,98640.70
2019-01-08T04:43:12.834Z,98638.97
2019-01-08T04:45:41.345Z,98628.05
2019-01-08T04:48:09.804Z,98625.88
2019-01-08T04:50:37.859Z,98623.70
2019-01-08T04:53:06.004Z,98615.41
2019-01-08T04:55:34.072Z,98612.38
2019-01-08T04:58:02.441Z,98613.67
2019-01-08T05:00:30.549Z,98612.78
2019-01-08T05:02:58.991Z,98604.94
2019-01-08T05:05:27.339Z,98608.44
2019-01-08T05:07:55.350Z,98597.53
2019-01-08T05:10:24.078Z,98603.20
2019-01-08T05:12:52.570Z,98598.37
2019-01-08T05:15:20.588Z,98594.00
2019-01-08T05:17:49.429Z,98603.19
2019-01-08T05:20:17.499Z,98601.43
2019-01-08T05:22:47.163Z,98591.84
2019-01-08T05:25:15.333Z,98585.31
2019-01-08T05:27:43.391Z,98585.33
2019-01-08T05:30:11.738Z,98591.41
2019-01-08T05:32:39.943Z,98588.38
2019-01-08T05:35:08.077Z,98589.27
2019-01-08T05:37:36.129Z,98584.91
2019-01-08T05:40:04.610Z,98586.65
2019-01-08T05:42:32.676Z,98584.47
2019-01-08T05:45:03.453Z,98591.42
2019-01-08T05:47:32.773Z,98588.38
2019-01-08T05:50:01.529Z,98582.72
2019-01-08T05:52:30.418Z,98574.41
2019-01-08T05:54:58.446Z,98569.65
2019-01-08T05:57:27.168Z,98573.53
2019-01-08T05:59:55.554Z,98576.19
2019-01-08T06:02:23.699Z,98569.65
2019-01-08T06:04:52.155Z,98568.33
2019-01-08T06:07:20.562Z,98563.97
2019-01-08T06:09:49.670Z,98570.50
2019-01-08T06:12:17.734Z,98571.81
2019-01-08T06:14:46.130Z,98565.28
2019-01-08T06:17:14.548Z,98578.34
2019-01-08T06:19:42.837Z,98576.16
2019-01-08T06:22:11.696Z,98575.75
2019-01-08T06:24:40.756Z,98574.42
2019-01-08T06:27:08.883Z,98572.67
2019-01-08T06:29:37.330Z,98573.55
2019-01-08T06:32:05.892Z,98566.59
2019-01-08T06:34:34.216Z,98566.13
2019-01-08T06:37:02.700Z,98569.62
2019-01-08T06:39:30.810Z,98560.45
2019-01-08T06:41:59.021Z,98556.09
2019-01-08T06:44:27.046Z,98555.20
2019-01-08T06:46:55.355Z,98555.64
2019-01-08T06:49:24.247Z,98550.38
2019-01-08T06:51:52.550Z,98548.67
2019-01-08T06:54:20.875Z,98542.08
2019-01-08T06:56:49.076Z,98538.17
2019-01-08T06:59:17.167Z,98537.73
2019-01-08T07:01:45.536Z,98541.70
2019-01-08T07:04:14.262Z,98539.91
2019-01-08T07:06:42.269Z,98539.46
2019-01-08T07:09:10.519Z,98542.95
2019-01-08T07:11:38.945Z,98542.47
2019-01-08T07:14:07.082Z,98543.31
2019-01-08T07:16:35.389Z,98535.88
2019-01-08T07:19:03.430Z,98545.92
2019-01-08T07:21:31.541Z,98540.62
2019-01-08T07:24:00.318Z,98543.27
2019-01-08T07:26:29.202Z,98544.61
2019-01-08T07:28:57.391Z,98550.75
2019-01-08T07:31:25.700Z,98545.48
2019-01-08T07:33:53.872Z,98553.78
2019-01-08T07:36:21.995Z,98548.86
2019-01-08T07:38:50.014Z,98552.05
2019-01-08T07:41:18.139Z,98552.39
2019-01-08T07:43:46.569Z,98566.42
2019-01-08T07:46:15.057Z,98550.62
2019-01-08T07:48:43.604Z,98554.47
2019-01-08T07:51:11.657Z,98565.11
2019-01-08T07:53:40.067Z,98561.08
2019-01-08T07:56:08.213Z,98563.53
2019-01-08T07:58:36.381Z,98559.59
2019-01-08T08:01:04.443Z,98555.06
2019-01-08T08:03:32.674Z,98580.90
2019-01-08T08:06:01.020Z,98555.48
2019-01-08T08:08:29.438Z,98554.54
2019-01-08T08:10:57.845Z,98551.78
2019-01-08T08:13:26.276Z,98553.55
2019-01-08T08:15:54.304Z,98543.03
2019-01-08T08:18:23.021Z,98534.34
2019-01-08T08:20:51.293Z,98533.45
2019-01-08T08:23:19.362Z,98533.41
2019-01-08T08:25:47.418Z,98530.83
2019-01-08T08:28:15.663Z,98516.81
2019-01-08T08:30:43.985Z,98514.97
2019-01-08T08:33:12.783Z,98518.52
2019-01-08T08:35:40.877Z,98516.70
2019-01-08T08:38:08.958Z,98517.88
2019-01-08T08:40:37.609Z,98527.59
2019-01-08T08:43:06.129Z,98525.52
2019-01-08T08:45:34.575Z,98523.83
2019-01-08T08:48:03.361Z,98515.16
2019-01-08T08:50:31.518Z,98508.97
2019-01-08T08:52:59.824Z,98505.02
2019-01-08T08:55:28.407Z,98504.48
2019-01-08T08:57:56.895Z,98515.31
2019-01-08T09:00:25.110Z,98496.25
2019-01-08T09:02:53.946Z,98505.38
2019-01-08T09:05:22.543Z,98497.48
2019-01-08T09:07:51.006Z,98500.95
2019-01-08T09:10:20.028Z,98506.69
2019-01-08T09:12:48.250Z,98506.58
2019-01-08T09:15:16.408Z,98504.84
2019-01-08T09:17:44.461Z,98508.45
2019-01-08T09:20:12.593Z,98523.03
2019-01-08T09:27:52.663Z,98514.32
2019-01-08T09:30:20.768Z,98510.13
2019-01-08T09:32:50.464Z,98508.05
2019-01-08T09:35:18.885Z,98508.99
2019-01-08T09:37:46.928Z,98513.64
2019-01-08T09:40:15.071Z,98517.44
2019-01-08T09:42:43.478Z,98521.22
2019-01-08T09:45:11.858Z,98532.28
2019-01-08T09:47:40.378Z,98513.17
2019-01-08T09:50:08.819Z,98504.52
2019-01-08T09:52:36.959Z,98516.98
2019-01-08T09:55:05.093Z,98509.52
2019-01-08T09:57:33.170Z,98500.22
2019-01-08T10:00:01.215Z,98505.44
2019-01-08T10:02:29.309Z,98501.91
2019-01-08T10:04:57.652Z,98496.43
2019-01-08T10:07:25.803Z,98500.81
2019-01-08T10:09:54.118Z,98501.36
2019-01-08T10:12:22.259Z,98486.52
2019-01-08T10:14:50.555Z,98494.80
2019-01-08T10:17:18.614Z,98489.35
2019-01-08T10:19:46.921Z,98494.13
2019-01-08T10:22:14.906Z,98491.33
2019-01-08T10:24:43.251Z,98490.23
2019-01-08T10:27:11.376Z,98480.04
2019-01-08T10:29:39.486Z,98485.33
2019-01-08T10:32:07.780Z,98484.26
2019-01-08T10:34:35.946Z,98474.47
2019-01-08T10:37:03.999Z,98488.34
2019-01-08T10:39:32.294Z,98475.66
2019-01-08T10:42:00.990Z,98465.62
2019-01-08T10:44:29.114Z,98451.30
2019-01-08T10:46:57.554Z,98463.00
2019-01-08T10:49:25.943Z,98434.15
2019-01-08T10:51:54.331Z,98437.77
2019-01-08T10:54:22.515Z,98447.77
2019-01-08T10:56:50.646Z,98447.30
2019-01-08T10:59:20.626Z,98439.53
2019-01-08T11:01:48.963Z,98450.05
2019-01-08T11:04:17.022Z,98430.41
2019-01-08T11:06:45.507Z,98424.00
2019-01-08T11:09:13.838Z,98432.50
2019-01-08T11:11:42.236Z,98432.19
2019-01-08T11:14:10.453Z,98419.47
2019-01-08T11:16:38.499Z,98423.20
2019-01-08T11:19:06.866Z,98412.66
2019-01-08T11:21:35.551Z,98406.95
2019-01-08T11:24:03.754Z,98416.77
2019-01-08T11:26:32.237Z,98423.00
2019-01-08T11:29:00.586Z,98414.59
2019-01-08T11:31:28.788Z,98435.98
2019-01-08T11:33:57.289Z,98411.02
2019-01-08T11:36:25.375Z,98413.08
2019-01-08T11:38:53.527Z,98396.84
2019-01-08T11:41:21.971Z,98403.02
2019-01-08T11:43:51.589Z,98399.66
2019-01-08T11:46:20.200Z,98404.72
2019-01-08T11:48:48.643Z,98387.13
2019-01-08T11:51:17.070Z,98400.00
2019-01-08T11:53:45.502Z,98407.27
2019-01-08T11:56:14.401Z,98390.34
2019-01-08T11:58:42.546Z,98388.13
2019-01-08T12:01:11.911Z,98381.45
2019-01-08T12:03:41.045Z,98373.33
2019-01-08T12:06:10.403Z,98377.02
2019-01-08T12:08:39.474Z,98385.59
2019-01-08T12:11:08.645Z,98368.07
2019-01-08T12:13:37.835Z,98364.95
2019-01-08T12:16:07.650Z,98347.23
2019-01-08T12:18:37.516Z,98350.97
2019-01-08T12:21:07.120Z,98351.61
2019-01-08T12:23:36.630Z,98339.45
2019-01-08T12:26:06.023Z,98326.42
2019-01-08T12:28:35.356Z,98331.00
2019-01-08T12:31:04.474Z,98324.84
2019-01-08T12:33:33.650Z,98316.31
2019-01-08T12:36:03.119Z,98312.79
2019-01-08T12:38:32.556Z,98309.66
2019-01-08T12:41:00.748Z,98306.73
2019-01-08T12:43:30.105Z,98308.44
2019-01-08T12:45:59.883Z,98338.96
2019-01-08T12:48:29.068Z,98310.45
2019-01-08T12:50:58.147Z,98308.94
2019-01-08T12:53:27.227Z,98305.73
2019-01-08T12:55:56.312Z,98308.50
2019-01-08T12:58:25.882Z,98310.33
2019-01-08T13:00:55.737Z,98289.17
2019-01-08T13:03:25.633Z,98286.39
2019-01-08T13:05:54.796Z,98292.23
2019-01-08T13:08:26.221Z,98308.13
2019-01-08T13:10:55.717Z,98301.37
2019-01-08T13:13:25.543Z,98294.09
2019-01-08T13:15:55.313Z,98284.16
2019-01-08T13:18:25.231Z,98275.04
2019-01-08T13:20:54.441Z,98304.34
2019-01-08T13:23:24.267Z,98296.97
2019-01-08T13:25:53.525Z,98287.86
2019-01-08T13:28:23.586Z,98282.80
2019-01-08T13:30:52.953Z,98282.05
2019-01-08T13:33:23.039Z,98295.99
2019-01-08T13:35:52.119Z,98303.53
2019-01-08T13:38:21.172Z,98278.70
2019-01-08T13:40:50.579Z,98291.48
2019-01-08T13:43:20.071Z,98291.38
2019-01-08T13:45:49.781Z,98301.00
2019-01-08T13:48:19.184Z,98291.41
2019-01-08T13:50:48.595Z,98282.39
2019-01-08T13:53:18.312Z,98277.36
2019-01-08T13:55:48.568Z,98283.75
2019-01-08T13:58:17.878Z,98275.12
2019-01-08T14:00:46.981Z,98270.64
2019-01-08T14:03:16.174Z,98277.16
2019-01-08T14:05:45.632Z,98274.91
2019-01-08T14:08:14.991Z,98274.91
2019-01-08T14:10:44.188Z,98266.40
2019-01-08T14:13:13.375Z,98278.70
2019-01-08T14:15:43.359Z,98279.73
2019-01-08T14:18:12.559Z,98276.54
2019-01-08T14:20:42.461Z,98277.39
2019-01-08T14:23:12.076Z,98274.86
2019-01-08T14:25:41.590Z,98273.45
2019-01-08T14:28:10.942Z,98263.02
2019-01-08T14:30:40.503Z,98273.14
2019-01-08T14:33:09.871Z,98271.78
2019-01-08T14:35:39.400Z,98270.36
2019-01-08T14:38:08.569Z,98280.64
2019-01-08T14:40:38.080Z,98279.73
2019-01-08T14:43:13.979Z,98276.92
2019-01-08T14:45:38.383Z,98272.91
2019-01-08T14:48:10.280Z,98284.56
2019-01-08T14:50:40.032Z,98279.17
2019-01-08T14:53:09.611Z,98268.60
2019-01-08T14:55:38.713Z,98267.81
2019-01-08T14:58:08.928Z,98265.20
2019-01-08T15:00:38.450Z,98269.70
2019-01-08T15:03:08.644Z,98260.60
2019-01-08T15:05:37.785Z,98252.75
2019-01-08T15:08:07.777Z,98251.11
2019-01-08T15:10:37.770Z,98260.86
2019-01-08T15:13:07.179Z,98248.08
2019-01-08T15:15:36.594Z,98262.87
2019-01-08T15:18:06.416Z,98265.40
2019-01-08T15:20:36.132Z,98272.73
2019-01-08T15:23:05.585Z,98269.38
2019-01-08T15:25:35.121Z,98274.70
2019-01-08T15:28:04.239Z,98272.05
2019-01-08T15:30:33.831Z,98268.55
2019-01-08T15:33:02.399Z,98275.20
2019-01-08T15:35:30.514Z,98260.48
2019-01-08T15:37:59.972Z,98269.95
2019-01-08T15:40:28.767Z,98256.59
2019-01-08T15:42:56.880Z,98250.05
2019-01-08T15:45:25.492Z,98252.62
2019-01-08T15:47:54.047Z,98264.49
2019-01-08T15:50:22.342Z,98262.70
2019-01-08T15:52:51.185Z,98260.11
2019-01-08T15:55:19.380Z,98260.08
2019-01-08T15:57:47.421Z,98266.66
2019-01-08T16:00:15.684Z,98236.08
2019-01-08T16:02:44.009Z,98253.48
2019-01-08T16:05:12.430Z,98243.13
2019-01-08T16:07:40.997Z,98237.05
2019-01-08T16:10:09.119Z,98212.09
2019-01-08T16:12:37.462Z,98253.78
2019-01-08T16:15:05.859Z,98267.60
2019-01-08T16:17:33.994Z,98247.58
2019-01-08T16:20:02.526Z,98257.49
2019-01-08T16:22:30.982Z,98253.11
2019-01-08T16:24:59.020Z,98269.17
2019-01-08T16:27:27.405Z,98264.91
2019-01-08T16:29:55.687Z,98271.67
2019-01-08T16:32:23.835Z,98272.25
2019-01-08T16:34:52.160Z,98271.42
2019-01-08T16:37:21.568Z,98279.27
2019-01-08T16:39:50.722Z,98279.56
2019-01-08T16:42:19.935Z,98288.41
2019-01-08T16:44:49.295Z,98288.08
2019-01-08T16:47:19.789Z,98285.41
2019-01-08T16:49:48.927Z,98291.09
2019-01-08T16:52:18.525Z,98297.16
2019-01-08T16:54:47.852Z,98292.38
2019-01-08T16:57:17.371Z,98296.83
2019-01-08T16:59:47.552Z,98288.98
2019-01-08T17:02:16.688Z,98274.04
2019-01-08T17:04:45.787Z,98269.81
2019-01-08T17:07:15.224Z,98273.68
2019-01-08T17:09:44.557Z,98280.70
2019-01-08T17:12:13.753Z,98281.77
2019-01-08T17:14:42.974Z,98291.56
2019-01-08T17:17:12.996Z,98285.41
2019-01-08T17:19:42.345Z,98274.12
2019-01-08T17:22:10.553Z,98276.41
2019-01-08T17:24:39.780Z,98279.86
2019-01-08T17:27:09.568Z,98270.33
2019-01-08T17:29:39.374Z,98279.45
2019-01-08T17:32:08.778Z,98271.14
2019-01-08T17:34:38.477Z,98282.50
2019-01-08T17:37:07.899Z,98271.20
2019-01-08T17:39:37.319Z,98277.69
2019-01-08T17:42:06.682Z,98263.86
2019-01-08T17:44:36.204Z,98277.39
2019-01-08T17:47:05.569Z,98276.69
2019-01-08T17:49:34.028Z,98277.66
2019-01-08T17:52:02.407Z,98271.25
2019-01-08T17:54:30.474Z,98276.66
2019-01-08T17:56:59.012Z,98264.79
2019-01-08T17:59:27.174Z,98268.91
2019-01-08T18:01:56.299Z,98250.34
2019-01-08T18:04:24.572Z,98261.46
2019-01-08T18:06:52.981Z,98253.81
2019-01-08T18:09:21.637Z,98243.74
2019-01-08T18:11:49.780Z,98262.58
2019-01-08T18:14:17.892Z,98258.52
2019-01-08T18:16:46.052Z,98272.16
2019-01-08T18:19:14.130Z,98274.45
2019-01-08T18:21:42.507Z,98264.01
2019-01-08T18:24:12.371Z,98259.55
2019-01-08T18:26:40.749Z,98261.59
2019-01-08T18:29:09.586Z,98255.91
2019-01-08T18:31:38.906Z,98254.23
2019-01-08T18:34:07.464Z,98258.81
2019-01-08T18:36:35.601Z,98257.67
2019-01-08T18:39:05.193Z,98262.50
2019-01-08T18:41:33.588Z,98264.26
2019-01-08T18:44:02.274Z,98267.62
2019-01-08T18:46:31.496Z,98268.06
2019-01-08T18:49:00.054Z,98277.23
2019-01-08T18:51:28.294Z,98254.95
2019-01-08T18:53:56.448Z,98258.89
2019-01-08T18:56:25.185Z,98260.38
2019-01-08T18:58:53.668Z,98248.57
2019-01-08T19:01:22.062Z,98264.87
2019-01-08T19:03:50.521Z,98256.72
2019-01-08T19:06:18.688Z,98263.84
2019-01-08T19:09:04.990Z,98262.33
2019-01-08T19:11:33.586Z,98266.35
2019-01-08T19:14:02.679Z,98250.20
2019-01-08T19:16:31.254Z,98267.16
2019-01-08T19:19:00.174Z,98273.22
2019-01-08T19:21:28.544Z,98266.30
2019-01-08T19:23:57.033Z,98268.43
2019-01-08T19:26:25.507Z,98262.05
2019-01-08T19:28:53.761Z,98266.39
2019-01-08T19:31:21.810Z,98274.38
2019-01-08T19:33:49.985Z,98280.06
2019-01-08T19:36:18.105Z,98265.94
2019-01-08T19:38:46.467Z,98284.20
2019-01-08T19:41:14.513Z,98285.27
2019-01-08T19:43:42.657Z,98285.01
2019-01-08T19:46:10.897Z,98306.91
2019-01-08T19:48:39.610Z,98282.05
2019-01-08T19:51:08.138Z,98285.91
2019-01-08T19:53:36.357Z,98282.42
2019-01-08T19:56:05.019Z,98288.00
2019-01-08T19:58:33.176Z,98281.19
2019-01-08T20:01:01.308Z,98290.84
2019-01-08T20:03:29.357Z,98281.11
2019-01-08T20:05:57.823Z,98288.79
2019-01-08T20:08:26.030Z,98278.83
2019-01-08T20:10:54.532Z,98287.73
2019-01-08T20:13:23.128Z,98277.15
2019-01-08T20:15:51.523Z,98277.19
2019-01-08T20:18:20.013Z,98286.59
2019-01-08T20:20:48.033Z,98268.16
2019-01-08T20:23:16.683Z,98266.27
2019-01-08T20:25:44.718Z,98266.92
2019-01-08T20:28:12.855Z,98262.91
2019-01-08T20:30:41.278Z,98259.22
2019-01-08T20:33:09.658Z,98262.09
2019-01-08T20:35:38.143Z,98258.27
2019-01-08T20:38:06.316Z,98252.95
2019-01-08T20:40:35.011Z,98256.44
2019-01-08T20:43:03.068Z,98258.61
2019-01-08T20:45:31.282Z,98250.30
2019-01-08T20:47:59.330Z,98260.24
2019-01-08T20:50:27.903Z,98261.23
2019-01-08T20:52:58.018Z,98250.53
2019-01-08T20:55:25.848Z,98243.66
2019-01-08T20:57:53.931Z,98256.59
2019-01-08T21:00:22.161Z,98242.10
2019-01-08T21:02:50.631Z,98236.65
2019-01-08T21:05:19.322Z,98233.66
2019-01-08T21:07:47.510Z,98228.83
2019-01-08T21:10:15.632Z,98230.77
2019-01-08T21:12:44.402Z,98252.70
2019-01-08T21:15:12.464Z,98219.34
2019-01-08T21:17:41.608Z,98219.98
2019-01-08T21:20:09.893Z,98216.84
2019-01-08T21:22:37.934Z,98236.91
2019-01-08T21:25:06.367Z,98214.13
2019-01-08T21:27:34.439Z,98219.70
2019-01-08T21:30:03.067Z,98216.21
2019-01-08T21:32:33.303Z,98209.67
2019-01-08T21:35:01.650Z,98206.80
2019-01-08T21:37:30.478Z,98209.80
2019-01-08T21:39:58.838Z,98201.31
2019-01-08T21:42:26.955Z,98192.06
2019-01-08T21:44:56.331Z,98202.25
2019-01-08T21:47:24.758Z,98226.45
2019-01-08T21:49:53.162Z,98211.06
2019-01-08T21:52:21.354Z,98214.45
2019-01-08T21:54:49.862Z,98195.22
2019-01-08T21:57:18.165Z,98198.73
2019-01-08T21:59:46.922Z,98190.76
2019-01-08T22:02:15.162Z,98207.67
2019-01-08T22:04:43.426Z,98209.91
2019-01-08T22:07:11.804Z,98186.95
2019-01-08T22:09:40.003Z,98195.22
2019-01-08T22:12:08.018Z,98190.65
2019-01-08T22:14:36.469Z,98194.55
2019-01-08T22:17:04.930Z,98209.21
2019-01-08T22:19:33.094Z,98192.47
2019-01-08T22:22:02.138Z,98203.08
2019-01-08T22:24:30.626Z,98188.17
2019-01-08T22:26:59.399Z,98214.00
2019-01-08T22:29:27.632Z,98270.87
2019-01-08T22:31:56.399Z,98194.36
2019-01-08T22:34:24.555Z,98192.67
2019-01-08T22:36:53.152Z,98210.53
2019-01-08T22:39:21.500Z,98192.22
2019-01-08T22:41:49.703Z,98187.47
2019-01-08T22:44:18.330Z,98193.00
2019-01-08T22:46:46.384Z,98190.31
2019-01-08T22:49:15.622Z,98165.36
2019-01-08T22:51:43.736Z,98178.59
2019-01-08T22:54:13.704Z,98168.43
2019-01-08T22:56:42.610Z,98181.63
2019-01-08T22:59:10.610Z,98165.50
2019-01-08T23:01:41.408Z,98164.68
2019-01-08T23:04:11.288Z,98166.33
2019-01-08T23:06:39.807Z,98158.48
2019-01-08T23:09:10.646Z,98148.34
2019-01-08T23:11:38.682Z,98149.87
2019-01-08T23:14:06.852Z,98156.41
2019-01-08T23:16:35.018Z,98141.12
2019-01-08T23:19:03.279Z,98162.55
2019-01-08T23:21:31.698Z,98148.05
2019-01-08T23:24:00.090Z,98157.17
2019-01-08T23:26:28.252Z,98145.34
2019-01-08T23:28:56.425Z,98155.52
2019-01-08T23:31:24.444Z,98138.88
2019-01-08T23:33:52.904Z,98148.90
2019-01-08T23:36:21.016Z,98147.65
2019-01-08T23:38:49.070Z,98146.39
2019-01-08T23:41:17.242Z,98145.98
2019-01-08T23:43:45.505Z,98148.70
2019-01-08T23:46:13.555Z,98143.36
2019-01-08T23:48:41.719Z,98154.73
2019-01-08T23:51:10.101Z,98138.95
2019-01-08T23:53:39.881Z,98128.92
2019-01-08T23:56:08.620Z,98127.59
2019-01-08T23:58:36.658Z,98136.38
